• Join FlightAware (Why Join?)
  • Login
  • US Flag 
10:11PM EDT


 

Airport Tracker/Info


-or-


 

Live Flight TrackerFlight Track Log ✈ RPA3275 ✈ 12-Jul-2013 ✈ KALB - KPHL

Flight Track Log - Related Links

Times and Time Zones

All times are in EDT time to prevent confusion due to time zone crossing. See the RPA3275 flight status page for this flight to view local times or setup timezone preferences in your user account.

Time Position Orientation Groundspeed Altitude Reporting Facility
EDT Latitude Longitude Course Direction KTS MPH feet Rate Location/Type
08:02AM 42.7631 -73.8089 211° Southwest 133 153 1,500  Level Boston Center
08:03AM 42.7964 -73.8181 349° North 182 209 3,000 2,760 Climbing Boston Center
08:04AM 42.8500 -73.8675 326° Northwest 262 302 6,300 3,240 Climbing Boston Center
08:05AM 42.0698 -75.0247 210° Southwest  Level FlightAware Approximate
08:05AM 42.8294 -73.9972 258° West 258 297 10,800  Level Boston Center
08:06AM 41.8154 -75.2476 211° Southwest  Level FlightAware Approximate
08:06AM 42.7989 -74.1039 249° West 279 321 14,300  Level Boston Center
08:07AM 41.7446 -75.3039 211° Southwest  Level FlightAware Approximate
08:07AM 42.7722 -74.2050 250° West 317 365 17,400  Level Boston Center
08:08AM 41.6738 -75.3601 211° Southwest  Level FlightAware Approximate
08:08AM 42.7286 -74.3253 244° Southwest 322 371 19,000  Level Boston Center
08:09AM 42.6564 -74.4078 220° Southwest 356 410 19,000  Level Boston Center
08:10AM 42.5692 -74.5122 221° Southwest 387 445 19,000  Level Boston Center
08:11AM 42.4967 -74.5942 220° Southwest 392 451 19,000  Level Boston Center
08:12AM 42.4072 -74.6981 221° Southwest 381 438 19,000  Level Boston Center
08:13AM 42.3367 -74.7769 220° Southwest 381 438 19,000  Level Boston Center
08:14AM 42.2469 -74.8831 221° Southwest 381 438 19,000  Level Boston Center
08:16AM 42.0797 -75.0431 215° Southwest 372 428 19,000  Level New York Center
08:17AM 41.9981 -75.1106 212° Southwest 379 436 19,000  Level New York Center
08:18AM 41.8994 -75.1903 211° Southwest 384 442 19,000  Level New York Center
08:19AM 41.8092 -75.2622 211° Southwest 384 442 19,000 -540 Level New York Center
08:20AM 41.7211 -75.3342 211° Southwest 384 442 18,000 -1,380 Descending New York Center
08:21AM 41.6481 -75.3931 211° Southwest 364 419 16,300 -1,800 Descending New York Center
08:22AM 41.5664 -75.4594 211° Southwest 350 403 14,500 -1,920 Descending New York Center
08:23AM 41.4783 -75.5281 210° Southwest 345 397 12,500 -1,260 Descending New York Center
08:24AM 41.4008 -75.5889 210° Southwest 338 389 12,000 -300 Descending New York Center
08:25AM 41.3178 -75.6356 203° Southwest 338 389 12,000  Level New York Center
08:26AM 41.2372 -75.6158 170° South 315 362 12,000  Level New York Center
08:27AM 41.1506 -75.5958 170° South 315 362 12,000  Level New York Center
08:28AM 41.0536 -75.5725 170° South 328 377 12,000  Level New York Center
08:29AM 40.9628 -75.5522 170° South 328 377 12,000  Level New York Center
08:30AM 40.8719 -75.5322 171° South 328 377 12,000  Level New York Center
08:31AM 40.7914 -75.5128 170° South 328 377 12,000  Level New York Center
08:32AM 40.6903 -75.4894 170° South 335 386 12,000 -120 Level New York Center
08:33AM 40.5994 -75.4667 169° South 335 386 11,800 -660 Descending New York Center
08:34AM 40.5106 -75.4469 170° South 329 379 10,700 -900 Descending New York Center
08:35AM 40.4367 -75.4231 166° South 321 369 10,000 -840 Descending New York Center
08:36AM 40.3506 -75.3844 161° South 302 348 9,100 -960 Descending New York Center
08:37AM 40.2739 -75.3711 172° South 295 339 8,200 -600 Descending New York Center
08:38AM 40.2181 -75.4136 210° Southwest 255 293 8,000 -600 Descending New York Center
08:39AM 40.1819 -75.4847 236° Southwest 225 259 7,100 -1,080 Descending New York Center
08:40AM 40.1481 -75.5503 236° Southwest 225 259 5,900 -600 Descending New York Center
08:41AM 40.0936 -75.5572 186° South 191 220 6,000  Climbing New York Center
08:42AM 40.0369 -75.5617 183° South 205 236 6,000  Level New York Center
08:43AM 39.9861 -75.5825 197° South 210 242 6,000  Level New York Center
08:44AM 39.9303 -75.6272 212° Southwest 210 242 6,000 -60 Level New York Center
08:45AM 39.9028 -75.6850 238° Southwest 210 242 5,900 -600 Descending New York Center
08:46AM 39.8592 -75.7306 219° Southwest 201 231 4,900 -720 Descending New York Center
08:47AM 39.8153 -75.7331 183° South 180 207 4,500 -480 Descending New York Center
08:48AM 39.7925 -75.6772 118° Southeast 151 174 4,000 -240 Descending New York Center
08:50AM 39.8000 -75.5833 84° East 174 200 4,000 -60 Level Philadelphia TRACON
08:51AM 39.8167 -75.5333 67° East 175 201 3,900 -540 Descending Philadelphia TRACON
08:52AM 39.8167 -75.4667 90° East 165 190 3,000 -900 Descending Philadelphia TRACON
08:53AM 39.8333 -75.4167 67° East 160 184 2,200 -840 Descending Philadelphia TRACON